createdAt,value
2017-12-22T00:02:18.734Z,22.77
2017-12-22T00:04:48.042Z,22.70
2017-12-22T00:07:18.111Z,23.70
2017-12-22T00:09:48.277Z,25.17
2017-12-22T00:12:18.399Z,25.87
2017-12-22T00:14:47.847Z,26.10
2017-12-22T00:17:16.900Z,21.30
2017-12-22T00:19:45.992Z,22.03
2017-12-22T00:22:15.613Z,21.30
2017-12-22T00:24:46.135Z,27.30
2017-12-22T00:27:14.814Z,19.90
2017-12-22T00:29:43.500Z,20.90
2017-12-22T00:32:13.336Z,21.87
2017-12-22T00:34:42.308Z,27.20
2017-12-22T00:37:11.583Z,20.30
2017-12-22T00:39:41.940Z,22.43
2017-12-22T00:42:10.821Z,21.80
2017-12-22T00:44:42.785Z,18.17
2017-12-22T00:47:13.521Z,25.50
2017-12-22T00:49:48.144Z,23.60
2017-12-22T00:52:18.353Z,26.43
2017-12-22T00:54:47.293Z,21.83
2017-12-22T00:57:17.688Z,28.73
2017-12-22T00:59:46.579Z,23.60
2017-12-22T01:02:15.482Z,23.00
2017-12-22T01:04:44.357Z,21.50
2017-12-22T01:07:13.201Z,23.07
2017-12-22T01:09:41.941Z,26.67
2017-12-22T01:12:10.633Z,25.20
2017-12-22T01:14:39.467Z,25.20
2017-12-22T01:17:14.653Z,22.90
2017-12-22T01:19:43.930Z,28.27
2017-12-22T01:22:13.355Z,23.77
2017-12-22T01:24:42.810Z,25.23
2017-12-22T01:27:11.567Z,23.80
2017-12-22T01:29:41.225Z,22.30
2017-12-22T01:32:10.761Z,25.70
2017-12-22T01:34:39.659Z,26.73
2017-12-22T01:37:08.336Z,22.67
2017-12-22T01:39:37.841Z,22.07
2017-12-22T01:42:06.526Z,25.50
2017-12-22T01:44:36.034Z,26.90
2017-12-22T01:47:04.719Z,25.97
2017-12-22T01:49:33.621Z,25.20
2017-12-22T01:52:02.295Z,25.23
2017-12-22T01:54:31.903Z,24.30
2017-12-22T01:57:01.003Z,22.73
2017-12-22T01:59:30.611Z,28.83
2017-12-22T02:01:59.503Z,26.13
2017-12-22T02:04:28.396Z,23.63
2017-12-22T02:06:58.106Z,25.30
2017-12-22T02:09:27.812Z,28.20
2017-12-22T02:11:56.920Z,27.40
2017-12-22T02:14:26.416Z,29.70
2017-12-22T02:16:56.640Z,28.93
2017-12-22T02:19:25.525Z,23.40
2017-12-22T02:21:54.252Z,24.43
2017-12-22T02:24:24.413Z,22.00
2017-12-22T02:26:53.128Z,22.83
2017-12-22T02:29:21.909Z,23.83
2017-12-22T02:31:50.870Z,25.20
2017-12-22T02:34:19.995Z,21.63
2017-12-22T02:36:48.896Z,25.83
2017-12-22T02:39:17.678Z,24.17
2017-12-22T02:41:46.468Z,29.53
2017-12-22T02:44:15.356Z,25.97
2017-12-22T02:46:44.253Z,23.50
2017-12-22T02:49:13.346Z,31.23
2017-12-22T02:51:42.029Z,25.80
2017-12-22T02:54:10.920Z,25.10
2017-12-22T02:56:39.919Z,25.90
2017-12-22T02:59:10.136Z,22.37
2017-12-22T03:01:39.026Z,26.40
2017-12-22T03:04:08.550Z,26.13
2017-12-22T03:06:37.319Z,23.10
2017-12-22T03:09:06.414Z,24.40
2017-12-22T03:11:36.231Z,27.90
2017-12-22T03:14:05.127Z,28.70
2017-12-22T03:16:34.644Z,31.70
2017-12-22T03:19:04.235Z,23.80
2017-12-22T03:21:33.842Z,28.93
2017-12-22T03:24:02.525Z,27.83
2017-12-22T03:26:32.142Z,27.93
2017-12-22T03:29:02.049Z,32.93
2017-12-22T03:31:32.212Z,25.67
2017-12-22T03:34:01.264Z,24.93
2017-12-22T03:36:30.462Z,26.83
2017-12-22T03:38:59.968Z,28.40
2017-12-22T03:41:28.860Z,27.30
2017-12-22T03:43:58.980Z,25.93
2017-12-22T03:46:27.767Z,36.20
2017-12-22T03:48:57.025Z,28.17
2017-12-22T03:51:25.702Z,25.03
2017-12-22T03:53:54.544Z,28.13
2017-12-22T03:56:23.334Z,24.93
2017-12-22T03:58:52.836Z,22.37
2017-12-22T04:01:21.435Z,22.70
2017-12-22T04:03:50.155Z,26.30
2017-12-22T04:06:18.950Z,26.97
2017-12-22T04:08:48.813Z,25.20
2017-12-22T04:11:17.497Z,32.30
2017-12-22T04:13:47.313Z,27.50
2017-12-22T04:16:16.204Z,28.13
2017-12-22T04:18:45.709Z,30.67
2017-12-22T04:21:14.496Z,24.80
2017-12-22T04:23:43.488Z,29.13
2017-12-22T04:26:12.275Z,26.33
2017-12-22T04:28:41.475Z,27.20
2017-12-22T04:31:10.936Z,20.47
2017-12-22T04:33:39.671Z,27.13
2017-12-22T04:36:08.458Z,24.80
2017-12-22T04:38:39.195Z,26.20
2017-12-22T04:41:07.874Z,25.33
2017-12-22T04:43:36.669Z,24.90
2017-12-22T04:46:05.861Z,29.43
2017-12-22T04:48:35.368Z,28.00
2017-12-22T04:51:04.200Z,30.87
2017-12-22T04:53:33.864Z,27.47
2017-12-22T04:56:03.780Z,30.33
2017-12-22T04:58:33.221Z,28.20
2017-12-22T05:01:03.405Z,28.47
2017-12-22T05:03:32.098Z,27.30
2017-12-22T05:06:00.878Z,25.90
2017-12-22T05:08:29.667Z,32.23
2017-12-22T05:10:58.875Z,36.10
2017-12-22T05:13:27.654Z,32.83
2017-12-22T05:15:56.452Z,29.20
2017-12-22T05:18:26.460Z,29.83
2017-12-22T05:20:55.351Z,29.93
2017-12-22T05:23:24.549Z,27.73
2017-12-22T05:25:53.339Z,29.03
2017-12-22T05:28:22.126Z,28.33
2017-12-22T05:30:50.819Z,31.37
2017-12-22T05:33:20.421Z,27.00
2017-12-22T05:35:49.107Z,28.70
2017-12-22T05:38:18.564Z,28.13
2017-12-22T05:40:47.299Z,30.93
2017-12-22T05:43:16.189Z,28.93
2017-12-22T05:45:44.877Z,29.07
2017-12-22T05:48:13.562Z,25.67
2017-12-22T05:50:42.353Z,26.90
2017-12-22T05:53:11.609Z,29.20
2017-12-22T05:55:41.053Z,31.53
2017-12-22T05:58:10.183Z,24.50
2017-12-22T06:00:38.940Z,28.93
2017-12-22T06:03:08.447Z,30.87
2017-12-22T06:05:38.359Z,30.40
2017-12-22T06:08:07.454Z,28.10
2017-12-22T06:10:37.676Z,26.67
2017-12-22T06:13:06.567Z,31.33
2017-12-22T06:15:36.426Z,29.53
2017-12-22T06:18:05.374Z,30.13
2017-12-22T06:20:34.675Z,35.17
2017-12-22T06:23:04.796Z,29.60
2017-12-22T06:25:34.198Z,32.07
2017-12-22T06:28:02.927Z,30.20
2017-12-22T06:30:32.083Z,43.23
2017-12-22T06:33:00.974Z,28.50
2017-12-22T06:35:29.658Z,31.60
2017-12-22T06:37:59.879Z,30.13
2017-12-22T06:40:28.976Z,28.50
2017-12-22T06:42:58.277Z,29.80
2017-12-22T06:45:26.963Z,35.80
2017-12-22T06:47:55.755Z,30.87
2017-12-22T06:50:24.643Z,34.23
2017-12-22T06:52:54.254Z,28.30
2017-12-22T06:55:23.858Z,33.00
2017-12-22T06:57:52.607Z,36.93
2017-12-22T07:00:21.335Z,28.73
2017-12-22T07:02:50.841Z,33.37
2017-12-22T07:05:20.140Z,33.73
2017-12-22T07:07:49.761Z,32.00
2017-12-22T07:10:19.261Z,33.70
2017-12-22T07:12:48.041Z,35.87
2017-12-22T07:15:16.799Z,34.37
2017-12-22T07:17:46.134Z,46.30
2017-12-22T07:20:15.635Z,44.47
2017-12-22T07:22:45.972Z,47.47
2017-12-22T07:25:14.821Z,37.57
2017-12-22T07:27:43.642Z,51.27
2017-12-22T07:30:12.838Z,34.10
2017-12-22T07:32:42.037Z,50.60
2017-12-22T07:35:11.643Z,39.87
2017-12-22T07:37:41.561Z,36.33
2017-12-22T07:40:11.521Z,45.23
2017-12-22T07:42:40.515Z,36.17
2017-12-22T07:45:10.484Z,49.13
2017-12-22T07:47:39.171Z,34.83
2017-12-22T07:50:08.992Z,43.40
2017-12-22T07:52:38.080Z,38.50
2017-12-22T07:55:07.932Z,37.63
2017-12-22T07:57:38.750Z,31.10
2017-12-22T08:00:08.747Z,40.50
2017-12-22T08:02:38.968Z,49.60
2017-12-22T08:05:08.678Z,38.10
2017-12-22T08:07:38.184Z,40.60
2017-12-22T08:10:07.793Z,39.60
2017-12-22T08:12:36.684Z,36.33
2017-12-22T08:15:06.190Z,41.40
2017-12-22T08:17:36.258Z,38.13
2017-12-22T08:20:06.224Z,43.60
2017-12-22T08:22:35.635Z,37.00
2017-12-22T08:25:05.341Z,33.93
2017-12-22T08:27:35.051Z,38.70
2017-12-22T08:30:04.142Z,47.43
2017-12-22T08:32:32.832Z,46.13
2017-12-22T08:35:02.961Z,47.50
2017-12-22T08:37:31.467Z,46.07
2017-12-22T08:40:01.345Z,45.63
2017-12-22T08:42:30.650Z,42.60
2017-12-22T08:44:59.845Z,44.60
2017-12-22T08:47:28.476Z,37.50
2017-12-22T08:49:58.852Z,35.50
2017-12-22T08:52:27.950Z,46.83
2017-12-22T08:54:56.738Z,41.30
2017-12-22T08:57:26.300Z,37.80
2017-12-22T08:59:55.647Z,37.20
2017-12-22T09:02:24.739Z,36.00
2017-12-22T09:04:54.863Z,40.50
2017-12-22T09:07:24.164Z,33.30
2017-12-22T09:09:53.053Z,43.50
2017-12-22T09:12:23.171Z,39.70
2017-12-22T09:14:52.574Z,41.83
2017-12-22T09:17:22.805Z,40.57
2017-12-22T09:19:52.099Z,42.80
2017-12-22T09:22:21.557Z,31.60
2017-12-22T09:24:51.127Z,30.60
2017-12-22T09:27:21.435Z,43.43
2017-12-22T09:29:50.126Z,38.90
2017-12-22T09:32:20.239Z,32.10
2017-12-22T09:34:50.499Z,35.80
2017-12-22T09:37:20.280Z,42.60
2017-12-22T09:39:49.375Z,31.57
2017-12-22T09:42:19.488Z,39.50
2017-12-22T09:44:49.409Z,32.20
2017-12-22T09:47:18.266Z,33.13
2017-12-22T09:49:48.210Z,32.07
2017-12-22T09:52:17.349Z,42.60
2017-12-22T09:54:46.199Z,42.23
2017-12-22T09:57:16.528Z,37.80
2017-12-22T09:59:46.640Z,46.83
2017-12-22T10:02:17.690Z,41.53
2017-12-22T10:04:47.295Z,34.80
2017-12-22T10:07:15.978Z,40.12
2017-12-22T10:09:44.637Z,43.47
2017-12-22T10:12:14.940Z,48.43
2017-12-22T10:14:44.011Z,39.93
2017-12-22T10:17:12.774Z,40.23
2017-12-22T10:19:41.971Z,31.90
2017-12-22T10:22:11.067Z,44.70
2017-12-22T10:24:40.691Z,39.23
2017-12-22T10:27:10.077Z,42.00
2017-12-22T10:29:39.273Z,41.37
2017-12-22T10:32:08.751Z,48.53
2017-12-22T10:34:38.909Z,41.50
2017-12-22T10:37:08.411Z,37.00
2017-12-22T10:39:38.014Z,44.43
2017-12-22T10:42:06.700Z,39.53
2017-12-22T10:44:36.307Z,35.33
2017-12-22T10:47:06.528Z,48.10
2017-12-22T10:49:36.207Z,39.83
2017-12-22T10:52:06.460Z,33.67
2017-12-22T10:54:36.583Z,40.80
2017-12-22T10:57:06.705Z,40.47
2017-12-22T10:59:36.512Z,41.87
2017-12-22T11:02:06.757Z,36.00
2017-12-22T11:04:35.831Z,36.20
2017-12-22T11:07:05.953Z,29.37
2017-12-22T11:09:35.458Z,27.43
2017-12-22T11:12:04.960Z,31.60
2017-12-22T11:14:34.886Z,31.37
2017-12-22T11:17:04.485Z,32.17
2017-12-22T11:19:35.627Z,29.50
2017-12-22T11:22:05.132Z,32.77
2017-12-22T11:24:35.055Z,30.87
2017-12-22T11:27:04.451Z,32.40
2017-12-22T11:29:33.969Z,36.90
2017-12-22T11:32:03.441Z,30.10
2017-12-22T11:34:32.844Z,29.50
2017-12-22T11:37:02.990Z,33.23
2017-12-22T11:39:32.200Z,32.60
2017-12-22T11:42:06.185Z,33.53
2017-12-22T11:44:41.740Z,37.67
2017-12-22T11:47:11.246Z,33.33
2017-12-22T11:49:41.162Z,39.03
2017-12-22T11:52:10.934Z,36.33
2017-12-22T11:54:40.898Z,31.17
2017-12-22T11:57:10.401Z,39.13
2017-12-22T11:59:40.721Z,34.70
2017-12-22T12:02:09.524Z,36.63
2017-12-22T12:04:38.398Z,35.37
2017-12-22T12:07:07.502Z,35.07
2017-12-22T12:09:36.999Z,26.87
2017-12-22T12:12:05.794Z,30.70
2017-12-22T12:14:34.988Z,34.83
2017-12-22T12:17:04.087Z,46.40
2017-12-22T12:19:34.049Z,36.87
2017-12-22T12:22:04.121Z,34.40
2017-12-22T12:24:34.134Z,36.87
2017-12-22T12:27:03.640Z,29.50
2017-12-22T12:29:33.971Z,40.63
2017-12-22T12:32:03.468Z,43.60
2017-12-22T12:34:33.701Z,39.73
2017-12-22T12:37:03.197Z,35.87
2017-12-22T12:39:33.315Z,32.00
2017-12-22T12:42:02.412Z,39.03
2017-12-22T12:44:31.209Z,35.83
2017-12-22T12:47:00.298Z,32.93
2017-12-22T12:49:29.497Z,34.03
2017-12-22T12:51:58.391Z,37.10
2017-12-22T12:54:28.198Z,40.23
2017-12-22T12:56:57.827Z,37.73
2017-12-22T12:59:27.690Z,43.03
2017-12-22T13:01:57.844Z,35.97
2017-12-22T13:04:27.962Z,33.10
2017-12-22T13:06:58.493Z,41.30
2017-12-22T13:09:27.791Z,36.50
2017-12-22T13:11:57.406Z,33.20
2017-12-22T13:14:27.423Z,39.50
2017-12-22T13:16:56.924Z,35.00
2017-12-22T13:19:26.019Z,38.27
2017-12-22T13:21:55.521Z,35.40
2017-12-22T13:24:25.846Z,40.03
2017-12-22T13:26:56.172Z,41.40
2017-12-22T13:29:26.404Z,46.50
2017-12-22T13:31:56.309Z,36.73
2017-12-22T13:34:25.153Z,39.00
2017-12-22T13:36:54.708Z,29.00
2017-12-22T13:39:24.194Z,43.13
2017-12-22T13:41:52.998Z,24.40
2017-12-22T13:44:22.912Z,24.90
2017-12-22T13:46:53.034Z,24.40
2017-12-22T13:49:22.139Z,31.10
2017-12-22T13:51:52.554Z,30.80
2017-12-22T13:54:21.869Z,21.90
2017-12-22T13:56:51.566Z,21.40
2017-12-22T13:59:20.425Z,23.53
2017-12-22T14:01:50.147Z,23.90
2017-12-22T14:04:19.059Z,27.47
2017-12-22T14:06:49.178Z,21.80
2017-12-22T14:09:18.485Z,19.63
2017-12-22T14:11:47.808Z,17.83
2017-12-22T14:14:18.001Z,19.27
2017-12-22T14:16:49.350Z,27.53
2017-12-22T14:19:19.678Z,24.33
2017-12-22T14:21:49.128Z,24.93
2017-12-22T14:24:19.490Z,72.33
2017-12-22T14:26:48.712Z,38.90
2017-12-22T14:29:17.603Z,20.23
2017-12-22T14:31:46.937Z,24.20
2017-12-22T14:34:16.342Z,36.13
2017-12-22T14:36:46.214Z,37.93
2017-12-22T14:39:16.249Z,23.70
2017-12-22T14:41:46.442Z,15.60
2017-12-22T14:44:16.546Z,17.60
2017-12-22T14:46:46.395Z,21.07
2017-12-22T14:49:16.661Z,27.70
2017-12-22T14:51:46.812Z,21.03
2017-12-22T14:54:16.033Z,34.27
2017-12-22T16:18:44.377Z,16.93
2017-12-22T16:21:14.679Z,18.30
2017-12-22T16:23:45.128Z,19.87
2017-12-22T16:26:15.448Z,19.20
2017-12-22T16:28:45.567Z,19.23
2017-12-22T16:31:15.480Z,13.50
2017-12-22T16:33:45.735Z,16.00
2017-12-22T16:36:16.549Z,15.33
2017-12-22T16:38:46.628Z,21.33
2017-12-22T16:41:15.864Z,14.77
2017-12-22T16:43:46.186Z,20.73
2017-12-22T16:46:16.101Z,27.23
2017-12-22T16:48:45.772Z,25.00
2017-12-22T16:51:15.982Z,18.23
2017-12-22T16:53:46.515Z,15.27
2017-12-22T16:56:16.588Z,12.50
2017-12-22T16:58:46.784Z,11.97
2017-12-22T17:01:16.877Z,18.53
2017-12-22T17:03:47.101Z,20.97
2017-12-22T17:06:17.243Z,13.30
2017-12-22T17:08:48.613Z,13.70
2017-12-22T17:11:18.208Z,34.93
2017-12-22T17:13:48.534Z,19.53
2017-12-22T17:16:18.065Z,14.40
2017-12-22T17:18:48.216Z,13.57
2017-12-22T17:21:18.127Z,14.13
2017-12-22T17:23:48.296Z,13.75
2017-12-22T17:26:17.803Z,20.80
2017-12-22T17:28:47.261Z,14.03
2017-12-22T17:31:16.811Z,11.60
2017-12-22T17:33:47.544Z,16.43
2017-12-22T17:36:16.845Z,15.43
2017-12-22T17:38:46.360Z,15.07
2017-12-22T17:41:15.859Z,18.40
2017-12-22T17:43:45.380Z,11.50
2017-12-22T17:46:15.280Z,17.30
2017-12-22T17:48:44.887Z,18.60
2017-12-22T17:51:14.594Z,14.47
2017-12-22T17:53:44.102Z,13.10
2017-12-22T17:56:14.220Z,15.60
2017-12-22T17:58:43.317Z,22.03
2017-12-22T18:01:12.310Z,14.90
2017-12-22T18:03:41.509Z,14.30
2017-12-22T18:06:11.427Z,16.03
2017-12-22T18:08:41.336Z,15.43
2017-12-22T18:11:11.048Z,17.67
2017-12-22T18:13:40.962Z,17.57
2017-12-22T18:16:10.775Z,16.73
2017-12-22T18:18:39.255Z,19.33
2017-12-22T18:21:08.368Z,15.50
2017-12-22T18:23:37.674Z,16.47
2017-12-22T18:26:07.102Z,21.93
2017-12-22T18:28:37.276Z,14.63
2017-12-22T18:31:07.578Z,13.90
2017-12-22T18:33:36.970Z,11.70
2017-12-22T18:36:07.228Z,14.40
2017-12-22T18:38:36.945Z,12.80
2017-12-22T18:41:07.263Z,10.67
2017-12-22T18:43:36.771Z,12.17
2017-12-22T18:46:06.888Z,9.00
2017-12-22T18:48:36.497Z,8.57
2017-12-22T18:51:06.005Z,11.20
2017-12-22T18:53:35.317Z,8.30
2017-12-22T18:56:05.624Z,7.67
2017-12-22T18:58:34.926Z,13.03
2017-12-22T19:01:04.891Z,11.63
2017-12-22T19:03:33.528Z,8.90
2017-12-22T19:06:02.420Z,10.93
2017-12-22T19:08:33.091Z,19.30
2017-12-22T19:11:03.337Z,17.40
2017-12-22T19:13:32.060Z,17.47
2017-12-22T19:16:01.773Z,23.73
2017-12-22T19:18:31.889Z,17.70
2017-12-22T19:21:02.019Z,15.47
2017-12-22T19:23:32.236Z,17.77
2017-12-22T19:26:01.843Z,27.03
2017-12-22T19:28:31.250Z,18.30
2017-12-22T19:31:00.442Z,22.47
2017-12-22T19:33:30.356Z,20.77
2017-12-22T19:36:00.434Z,15.00
2017-12-22T19:38:29.777Z,18.60
2017-12-22T19:41:00.104Z,15.50
2017-12-22T19:43:30.792Z,18.70
2017-12-22T19:46:00.962Z,17.97
2017-12-22T19:48:30.018Z,15.47
2017-12-22T19:50:59.352Z,18.27
2017-12-22T19:53:28.857Z,20.53
2017-12-22T19:55:59.738Z,27.07
2017-12-22T19:58:28.482Z,16.40
2017-12-22T20:00:58.456Z,22.03
2017-12-22T20:03:28.524Z,14.93
2017-12-22T20:05:57.922Z,22.00
2017-12-22T20:08:26.610Z,19.83
2017-12-22T20:10:57.102Z,20.60
2017-12-22T20:13:26.237Z,22.20
2017-12-22T20:15:55.340Z,19.63
2017-12-22T20:18:24.634Z,14.50
2017-12-22T20:20:54.280Z,16.00
2017-12-22T20:23:25.650Z,15.70
2017-12-22T20:25:56.392Z,15.60
2017-12-22T20:28:25.935Z,13.90
2017-12-22T20:30:55.333Z,16.00
2017-12-22T20:33:25.448Z,12.97
2017-12-22T20:35:55.670Z,17.03
2017-12-22T20:38:25.997Z,15.43
2017-12-22T20:40:56.446Z,24.13
2017-12-22T20:43:26.607Z,20.47
2017-12-22T20:45:56.056Z,13.83
2017-12-22T20:48:26.190Z,19.87
2017-12-22T20:50:55.018Z,20.57
2017-12-22T20:53:24.666Z,17.93
2017-12-22T20:55:53.455Z,14.40
2017-12-22T20:58:22.185Z,22.20
2017-12-22T21:00:51.144Z,18.13
2017-12-22T21:03:21.667Z,36.13
2017-12-22T21:05:51.188Z,18.53
2017-12-22T21:08:20.264Z,25.93
2017-12-22T21:10:49.159Z,23.13
2017-12-22T21:13:18.458Z,36.00
2017-12-22T21:15:50.422Z,27.63
2017-12-22T21:18:19.108Z,21.07
2017-12-22T21:20:49.136Z,18.58
2017-12-22T21:23:19.160Z,19.13
2017-12-22T21:25:48.961Z,24.13
2017-12-22T21:28:18.635Z,24.70
2017-12-22T21:30:48.376Z,29.13
2017-12-22T21:33:17.588Z,21.10
2017-12-22T21:35:46.469Z,22.20
2017-12-22T21:38:16.991Z,28.93
2017-12-22T21:40:46.092Z,31.23
2017-12-22T21:43:15.339Z,27.70
2017-12-22T21:45:44.078Z,30.27
2017-12-22T21:48:13.581Z,23.37
2017-12-22T21:50:42.371Z,30.80
2017-12-22T21:53:11.668Z,23.70
2017-12-22T21:55:41.174Z,23.57
2017-12-22T21:58:09.966Z,20.17
2017-12-22T22:00:39.572Z,18.33
2017-12-22T22:03:09.076Z,26.27
2017-12-22T22:05:39.333Z,23.73
2017-12-22T22:08:08.469Z,33.83
2017-12-22T22:10:37.804Z,29.80
2017-12-22T22:13:06.586Z,23.03
2017-12-22T22:15:36.501Z,26.33
2017-12-22T22:18:06.832Z,22.33
2017-12-22T22:20:36.946Z,35.23
2017-12-22T22:23:06.042Z,28.20
2017-12-22T22:25:35.250Z,22.93
2017-12-22T22:28:04.133Z,23.20
2017-12-22T22:30:33.341Z,17.07
2017-12-22T22:33:02.802Z,14.00
2017-12-22T22:35:31.732Z,24.43
2017-12-22T22:38:02.052Z,24.23
2017-12-22T22:40:31.702Z,34.00
2017-12-22T22:43:01.213Z,34.23
2017-12-22T22:45:30.360Z,29.20
2017-12-22T22:47:59.620Z,24.03
2017-12-22T22:50:29.891Z,19.43
2017-12-22T22:53:00.008Z,17.10
2017-12-22T22:55:29.204Z,15.70
2017-12-22T22:57:58.511Z,34.63
2017-12-22T23:00:27.400Z,27.23
2017-12-22T23:02:57.728Z,15.67
2017-12-22T23:05:27.634Z,17.27
2017-12-22T23:07:56.489Z,15.20
2017-12-22T23:10:26.776Z,17.97
2017-12-22T23:12:55.843Z,11.50
2017-12-22T23:15:25.303Z,15.27
2017-12-22T23:17:54.547Z,13.47
2017-12-22T23:20:23.858Z,13.07
2017-12-22T23:22:53.147Z,20.77
2017-12-22T23:25:22.468Z,21.13
2017-12-22T23:27:51.963Z,17.47
2017-12-22T23:30:20.842Z,29.70
2017-12-22T23:32:50.917Z,21.60
2017-12-22T23:35:20.880Z,13.23
2017-12-22T23:37:50.285Z,15.03
2017-12-22T23:40:19.381Z,18.57
2017-12-22T23:42:49.032Z,18.73
2017-12-22T23:45:18.496Z,16.43
2017-12-22T23:47:48.002Z,13.73
2017-12-22T23:50:17.884Z,22.10
2017-12-22T23:52:47.261Z,14.90
2017-12-22T23:55:16.932Z,15.90
2017-12-22T23:57:47.245Z,14.90
